Time;durP1;ratioP1;P1;durP2;ratioP2;P2;SDS_P1;SDS_P2;PMS_P1;PMS_P2;Temp;Humidity;BMP_temperature;BMP_pressure;BME280_temperature;BME280_humidity;BME280_pressure;Samples;Min_cycle;Max_cycle;Signal;HPM_P1;HPM_P2
2022/10/31 00:00:45;;;;;;;14.23;8.70;;;15.70;99.90;;;;;;5074193;28;20417;-38
2022/10/31 00:03:10;;;;;;;10.63;8.20;;;15.80;99.90;;;;;;5080027;28;20514;-38
2022/10/31 00:05:39;;;;;;;10.60;8.20;;;15.80;99.90;;;;;;5072085;28;20526;-38
2022/10/31 00:08:05;;;;;;;10.37;7.77;;;15.80;99.90;;;;;;5086967;28;20233;-38
2022/10/31 00:10:31;;;;;;;12.23;7.80;;;15.80;99.90;;;;;;5069041;28;20419;-38
2022/10/31 00:12:56;;;;;;;10.27;8.60;;;15.70;99.90;;;;;;5069223;28;20204;-38
2022/10/31 00:15:22;;;;;;;14.40;9.20;;;15.70;99.90;;;;;;5068191;28;20346;-38
2022/10/31 00:17:47;;;;;;;10.97;8.20;;;15.80;99.90;;;;;;5069440;28;20234;-38
2022/10/31 00:20:13;;;;;;;10.90;7.90;;;15.80;99.90;;;;;;5069027;28;20528;-38
2022/10/31 00:22:39;;;;;;;12.90;8.07;;;15.80;99.90;;;;;;5069291;28;20189;-38
2022/10/31 00:25:04;;;;;;;15.00;8.03;;;15.80;99.90;;;;;;5081095;28;20185;-38
2022/10/31 00:27:30;;;;;;;12.80;8.50;;;15.80;99.90;;;;;;5088830;28;20176;-39
2022/10/31 00:29:56;;;;;;;13.03;8.07;;;15.80;99.90;;;;;;5089815;28;20169;-38
2022/10/31 00:32:21;;;;;;;12.63;8.10;;;15.70;99.90;;;;;;5093252;28;20639;-38
2022/10/31 00:34:47;;;;;;;12.30;9.23;;;15.80;99.90;;;;;;5093234;28;20281;-38
2022/10/31 00:37:12;;;;;;;9.20;7.57;;;15.70;99.90;;;;;;5093440;28;20260;-38
2022/10/31 00:39:38;;;;;;;10.73;8.10;;;15.80;99.90;;;;;;5092610;28;20252;-39
2022/10/31 00:42:04;;;;;;;10.07;7.87;;;15.70;99.90;;;;;;5093366;28;20180;-38
2022/10/31 00:44:29;;;;;;;11.97;7.63;;;15.70;99.90;;;;;;5091567;28;20181;-37
2022/10/31 00:46:55;;;;;;;10.83;7.93;;;15.70;99.90;;;;;;5093258;28;20599;-38
2022/10/31 00:49:20;;;;;;;10.03;7.77;;;15.60;99.90;;;;;;5092682;28;20184;-38
2022/10/31 00:51:46;;;;;;;10.60;7.37;;;15.70;99.90;;;;;;5093163;28;20264;-40
2022/10/31 00:54:11;;;;;;;10.20;7.30;;;15.60;99.90;;;;;;5092441;28;20228;-38
2022/10/31 00:56:37;;;;;;;20.83;8.33;;;15.50;99.90;;;;;;5092887;28;20794;-39
2022/10/31 00:59:03;;;;;;;11.50;7.70;;;15.50;99.90;;;;;;5092400;28;20185;-39
2022/10/31 01:01:28;;;;;;;13.00;7.63;;;15.50;99.90;;;;;;5091948;28;20618;-38
2022/10/31 01:03:54;;;;;;;11.10;7.43;;;15.50;99.90;;;;;;5092594;28;20180;-38
2022/10/31 01:06:19;;;;;;;12.53;7.60;;;15.40;99.90;;;;;;5092571;28;20192;-38
2022/10/31 01:08:47;;;;;;;13.97;9.07;;;15.40;99.90;;;;;;5092109;28;20215;-38
2022/10/31 01:11:14;;;;;;;10.13;7.60;;;15.40;99.90;;;;;;5092661;28;20173;-38
2022/10/31 01:13:41;;;;;;;13.27;7.73;;;15.40;99.90;;;;;;5092296;28;20467;-38
2022/10/31 01:16:07;;;;;;;11.30;7.70;;;15.50;99.90;;;;;;5092576;28;20403;-38
2022/10/31 01:18:34;;;;;;;11.90;8.30;;;15.50;99.90;;;;;;5092117;28;20456;-38
2022/10/31 01:21:01;;;;;;;11.17;8.60;;;15.50;99.90;;;;;;5092340;28;20423;-38
2022/10/31 01:23:27;;;;;;;16.43;9.50;;;15.60;99.90;;;;;;5091990;28;20464;-38
2022/10/31 01:26:01;;;;;;;12.73;9.30;;;15.60;99.90;;;;;;5092197;28;20968;-38
2022/10/31 01:28:26;;;;;;;12.67;7.73;;;15.60;99.90;;;;;;5092013;28;20179;-38
2022/10/31 01:30:52;;;;;;;11.57;8.53;;;15.60;99.90;;;;;;5092288;28;20841;-39
2022/10/31 01:33:18;;;;;;;13.17;8.30;;;15.60;99.90;;;;;;5091928;28;20177;-39
2022/10/31 01:35:43;;;;;;;10.00;7.87;;;15.60;99.90;;;;;;5092094;28;20208;-38
2022/10/31 01:38:09;;;;;;;11.00;8.20;;;15.60;99.90;;;;;;5091937;28;20241;-38
2022/10/31 01:40:34;;;;;;;11.77;8.73;;;15.60;99.90;;;;;;5091515;28;20594;-38
2022/10/31 01:43:00;;;;;;;9.43;7.40;;;15.70;99.90;;;;;;5091209;28;20232;-38
2022/10/31 01:45:26;;;;;;;14.23;8.77;;;15.70;99.90;;;;;;5092120;28;20260;-38
2022/10/31 01:47:51;;;;;;;18.60;8.07;;;15.70;99.90;;;;;;5091857;28;20201;-39
2022/10/31 01:50:28;;;;;;;11.70;8.37;;;15.70;99.90;;;;;;5091530;28;20176;-38
2022/10/31 01:52:55;;;;;;;11.10;8.17;;;15.70;99.90;;;;;;5091635;28;20180;-38
2022/10/31 01:55:26;;;;;;;17.30;8.80;;;15.70;99.90;;;;;;5092000;28;20455;-39
2022/10/31 01:57:55;;;;;;;9.67;7.60;;;15.60;99.90;;;;;;5091604;28;20446;-38
2022/10/31 02:00:21;;;;;;;8.53;7.57;;;15.60;99.90;;;;;;5090385;28;20430;-38
2022/10/31 02:02:49;;;;;;;14.90;8.83;;;15.50;99.90;;;;;;5091272;28;20403;-38
2022/10/31 02:05:22;;;;;;;12.83;8.13;;;15.50;99.90;;;;;;5091471;28;20426;-38
2022/10/31 02:07:58;;;;;;;11.30;7.97;;;15.30;99.90;;;;;;5091439;28;20418;-38
2022/10/31 02:10:25;;;;;;;10.30;7.73;;;15.20;99.90;;;;;;5091243;28;20405;-38
2022/10/31 02:12:54;;;;;;;11.30;8.93;;;15.20;99.90;;;;;;5091070;28;20411;-38
2022/10/31 02:15:20;;;;;;;10.73;7.80;;;15.10;99.90;;;;;;5089982;28;20465;-38
2022/10/31 02:17:46;;;;;;;12.60;7.90;;;15.00;99.90;;;;;;5091473;28;20839;-39
2022/10/31 02:20:17;;;;;;;8.93;7.73;;;14.90;99.90;;;;;;5090907;28;20200;-38
2022/10/31 02:23:31;;;;;;;12.70;8.60;;;14.80;99.90;;;;;;5091222;28;20410;-38
2022/10/31 02:26:43;;;;;;;10.73;7.50;;;14.80;99.90;;;;;;5052684;28;20998;-38
2022/10/31 02:29:36;;;;;;;11.50;7.00;;;14.70;99.90;;;;;;5090693;28;20403;-38
2022/10/31 02:32:21;;;;;;;15.17;8.37;;;14.60;99.90;;;;;;5090958;28;20445;-38
2022/10/31 02:34:58;;;;;;;12.23;8.10;;;14.60;99.90;;;;;;5090820;28;20504;-38
2022/10/31 02:37:42;;;;;;;11.17;8.30;;;14.60;99.90;;;;;;5091025;28;20479;-38
2022/10/31 02:40:22;;;;;;;10.00;7.13;;;14.50;99.90;;;;;;5090566;28;20466;-38
2022/10/31 02:42:57;;;;;;;9.50;8.33;;;14.50;99.90;;;;;;5090625;28;20410;-37
2022/10/31 02:45:28;;;;;;;12.50;8.60;;;14.40;99.90;;;;;;5090873;28;20856;-38
2022/10/31 02:47:57;;;;;;;11.83;8.20;;;14.40;99.90;;;;;;5090906;28;20489;-38
2022/10/31 02:50:28;;;;;;;10.50;7.70;;;14.50;99.90;;;;;;5090155;28;20473;-38
2022/10/31 02:52:54;;;;;;;9.67;8.07;;;14.50;99.90;;;;;;5090306;28;20417;-38
2022/10/31 02:55:22;;;;;;;11.20;8.80;;;14.50;99.90;;;;;;5090511;28;20820;-37
2022/10/31 02:57:49;;;;;;;17.00;8.20;;;14.40;99.90;;;;;;5090669;28;20168;-38
2022/10/31 03:00:15;;;;;;;11.00;8.10;;;14.30;99.90;;;;;;5089186;28;20492;-38
2022/10/31 03:03:01;;;;;;;10.30;7.90;;;14.20;99.90;;;;;;5090337;28;20921;-38
2022/10/31 03:05:40;;;;;;;10.60;8.07;;;14.20;99.90;;;;;;5088947;28;20462;-38
2022/10/31 03:08:57;;;;;;;11.57;7.80;;;14.10;99.90;;;;;;5090768;28;20413;-38
2022/10/31 03:11:28;;;;;;;13.27;8.57;;;14.20;99.90;;;;;;5063054;28;20445;-38
2022/10/31 03:14:12;;;;;;;11.93;8.80;;;14.20;99.90;;;;;;5089720;28;20450;-38
2022/10/31 03:16:50;;;;;;;9.93;7.70;;;14.20;99.90;;;;;;5090426;28;20406;-38
2022/10/31 03:19:27;;;;;;;15.00;8.70;;;14.30;99.90;;;;;;5090106;28;20417;-38
2022/10/31 03:22:04;;;;;;;13.80;8.77;;;14.30;99.90;;;;;;5088800;28;20501;-38
2022/10/31 03:24:38;;;;;;;13.20;9.00;;;14.30;99.90;;;;;;5089982;28;20433;-38
2022/10/31 03:27:06;;;;;;;12.67;8.47;;;14.40;99.90;;;;;;5090255;28;20407;-38
2022/10/31 03:29:36;;;;;;;11.63;7.67;;;14.40;99.90;;;;;;5089939;28;20493;-40
2022/10/31 03:32:06;;;;;;;12.23;9.50;;;14.40;99.90;;;;;;5090050;28;21115;-38
2022/10/31 03:34:33;;;;;;;12.40;8.03;;;14.50;99.90;;;;;;5089778;28;20453;-37
2022/10/31 03:37:01;;;;;;;12.23;9.07;;;14.60;99.90;;;;;;5089998;28;20965;-38
2022/10/31 03:39:29;;;;;;;14.57;9.10;;;14.60;99.90;;;;;;5089909;28;20456;-38
2022/10/31 03:42:10;;;;;;;13.10;9.40;;;14.70;99.90;;;;;;5090150;28;20818;-38
2022/10/31 03:44:40;;;;;;;16.80;8.03;;;14.70;99.90;;;;;;5089943;28;20403;-38
2022/10/31 03:47:07;;;;;;;14.20;7.20;;;14.70;99.90;;;;;;5089739;28;20407;-37
2022/10/31 03:49:33;;;;;;;10.23;7.77;;;14.60;99.90;;;;;;5089827;28;20490;-39
2022/10/31 03:52:21;;;;;;;11.60;8.47;;;14.60;99.90;;;;;;5090036;28;20984;-38
2022/10/31 03:54:54;;;;;;;13.10;8.73;;;14.70;99.90;;;;;;5089610;28;20461;-38
2022/10/31 03:57:43;;;;;;;12.03;8.60;;;14.70;99.90;;;;;;5088662;28;20410;-38
2022/10/31 04:00:11;;;;;;;10.87;8.17;;;14.70;99.90;;;;;;5088751;28;20968;-38
2022/10/31 04:02:45;;;;;;;12.50;8.10;;;14.70;99.90;;;;;;5088246;28;20913;-37
2022/10/31 04:05:15;;;;;;;14.67;9.03;;;14.60;99.90;;;;;;5091994;28;20402;-38
2022/10/31 04:07:44;;;;;;;13.10;9.80;;;14.60;99.90;;;;;;5093980;28;20482;-38
2022/10/31 04:10:14;;;;;;;14.43;9.40;;;14.50;99.90;;;;;;5093266;28;20425;-37
2022/10/31 04:12:42;;;;;;;18.43;9.40;;;14.50;99.90;;;;;;5093701;28;20836;-38
2022/10/31 04:15:10;;;;;;;12.27;8.60;;;14.50;99.90;;;;;;5093758;28;20989;-38
2022/10/31 04:17:40;;;;;;;10.47;8.07;;;14.40;99.90;;;;;;5093327;28;20463;-38
2022/10/31 04:20:06;;;;;;;12.93;9.53;;;14.50;99.90;;;;;;5092150;28;20426;-38
2022/10/31 04:22:32;;;;;;;13.50;10.57;;;14.40;99.90;;;;;;5092886;28;20413;-38
2022/10/31 04:24:57;;;;;;;12.27;9.23;;;14.40;99.90;;;;;;5093283;28;20418;-38
2022/10/31 04:27:23;;;;;;;10.90;9.00;;;14.40;99.90;;;;;;5093678;28;20615;-38
2022/10/31 04:29:49;;;;;;;16.27;10.07;;;14.40;99.90;;;;;;5093113;28;20192;-38
2022/10/31 04:32:14;;;;;;;12.80;9.40;;;14.40;99.90;;;;;;5093491;28;20187;-38
2022/10/31 04:34:40;;;;;;;10.57;9.00;;;14.30;99.90;;;;;;5093060;28;20204;-38
2022/10/31 04:37:05;;;;;;;15.00;8.77;;;14.20;99.90;;;;;;5093191;28;20194;-38
2022/10/31 04:39:31;;;;;;;12.23;8.90;;;14.20;99.90;;;;;;5092955;28;20635;-38
2022/10/31 04:41:56;;;;;;;15.90;9.20;;;14.20;99.90;;;;;;5093300;28;20179;-38
2022/10/31 04:44:22;;;;;;;15.20;9.90;;;14.10;99.90;;;;;;5088698;28;20192;-39
2022/10/31 04:46:48;;;;;;;11.90;8.87;;;14.00;99.90;;;;;;5091700;28;20791;-38
2022/10/31 04:49:13;;;;;;;14.53;8.37;;;14.10;99.90;;;;;;5092841;28;20728;-38
2022/10/31 04:51:39;;;;;;;15.07;8.83;;;14.10;99.90;;;;;;5092536;28;20189;-38
2022/10/31 04:54:05;;;;;;;10.10;7.90;;;14.20;99.90;;;;;;5092732;28;20212;-38
2022/10/31 04:56:30;;;;;;;13.57;8.70;;;14.10;99.90;;;;;;5092994;28;20177;-38
2022/10/31 04:58:56;;;;;;;14.13;8.20;;;14.10;99.90;;;;;;5091988;28;20176;-38
2022/10/31 05:01:21;;;;;;;17.70;9.00;;;14.00;99.90;;;;;;5091998;28;20176;-38
2022/10/31 05:03:47;;;;;;;16.47;8.10;;;14.00;99.90;;;;;;5095524;28;20684;-38
2022/10/31 05:06:13;;;;;;;16.03;9.10;;;13.90;99.90;;;;;;5096738;28;20202;-38
2022/10/31 05:08:38;;;;;;;10.53;8.37;;;13.80;99.90;;;;;;5103333;28;20263;-38
2022/10/31 05:11:04;;;;;;;13.10;8.87;;;13.70;99.90;;;;;;5107236;28;20622;-38
2022/10/31 05:13:30;;;;;;;13.83;8.70;;;13.70;99.90;;;;;;5092582;28;20667;-38
2022/10/31 05:15:56;;;;;;;10.77;8.77;;;13.70;99.90;;;;;;5091395;28;20416;-39
2022/10/31 05:18:22;;;;;;;10.27;8.83;;;13.70;99.90;;;;;;5092532;28;20767;-38
2022/10/31 05:20:48;;;;;;;11.90;8.67;;;13.60;99.90;;;;;;5089963;28;20176;-38
2022/10/31 05:23:14;;;;;;;12.20;9.23;;;13.60;99.90;;;;;;5092136;28;20417;-38
2022/10/31 05:25:40;;;;;;;12.20;9.57;;;13.50;99.90;;;;;;5092648;28;20215;-38
2022/10/31 05:28:07;;;;;;;12.17;8.37;;;13.60;99.90;;;;;;5092444;28;20677;-39
2022/10/31 05:30:33;;;;;;;11.97;7.80;;;13.60;99.90;;;;;;5092120;28;20417;-38
2022/10/31 05:32:59;;;;;;;12.90;8.37;;;13.60;99.90;;;;;;5091984;28;20409;-38
2022/10/31 05:35:30;;;;;;;11.33;9.40;;;13.50;99.90;;;;;;5092013;28;20454;-38
2022/10/31 05:37:57;;;;;;;13.83;10.13;;;13.50;99.90;;;;;;5092073;28;20418;-38
2022/10/31 05:40:24;;;;;;;13.90;11.57;;;13.40;99.90;;;;;;5091913;28;20485;-38
2022/10/31 05:42:54;;;;;;;16.73;11.67;;;13.50;99.90;;;;;;5091783;28;20506;-38
2022/10/31 05:45:21;;;;;;;12.90;10.97;;;13.50;99.90;;;;;;5092173;28;20456;-38
2022/10/31 05:48:05;;;;;;;14.30;10.60;;;13.60;99.90;;;;;;5091815;28;20426;-38
2022/10/31 05:50:31;;;;;;;14.63;10.13;;;13.60;99.90;;;;;;5091679;28;20453;-38
2022/10/31 05:52:59;;;;;;;22.40;11.60;;;13.60;99.90;;;;;;5091558;28;21147;-38
2022/10/31 05:55:25;;;;;;;14.20;10.80;;;13.60;99.90;;;;;;5091890;28;20463;-38
2022/10/31 05:57:52;;;;;;;21.43;11.43;;;13.60;99.90;;;;;;5091724;28;20492;-38
2022/10/31 06:00:18;;;;;;;15.47;11.23;;;13.60;99.90;;;;;;5089894;28;20417;-38
2022/10/31 06:02:44;;;;;;;19.37;11.63;;;13.70;99.90;;;;;;5091333;28;20505;-38
2022/10/31 06:05:10;;;;;;;15.77;11.50;;;13.70;99.90;;;;;;5087488;28;20513;-38
2022/10/31 06:07:36;;;;;;;19.00;12.00;;;13.70;99.90;;;;;;5090180;28;20188;-38
2022/10/31 06:10:04;;;;;;;16.40;11.50;;;13.80;99.90;;;;;;5089445;28;20792;-38
2022/10/31 06:12:30;;;;;;;17.50;11.20;;;13.70;99.90;;;;;;5091263;28;20429;-38
2022/10/31 06:14:55;;;;;;;24.67;12.03;;;13.70;99.90;;;;;;5087032;28;20474;-38
2022/10/31 06:17:21;;;;;;;17.20;12.70;;;13.60;99.90;;;;;;5091460;28;20429;-38
2022/10/31 06:19:47;;;;;;;19.67;11.77;;;13.70;99.90;;;;;;5091082;28;20192;-38
2022/10/31 06:22:12;;;;;;;21.20;12.87;;;13.70;99.90;;;;;;5091465;28;20195;-38
2022/10/31 06:24:38;;;;;;;15.53;11.80;;;13.70;99.90;;;;;;5090860;28;20229;-38
2022/10/31 06:27:05;;;;;;;15.33;11.13;;;13.60;99.90;;;;;;5090991;28;20673;-37
2022/10/31 06:29:30;;;;;;;19.30;12.03;;;13.70;99.90;;;;;;5090563;28;20184;-38
2022/10/31 06:31:56;;;;;;;16.10;12.60;;;13.70;99.90;;;;;;5090879;28;20543;-38
2022/10/31 06:34:22;;;;;;;16.53;12.33;;;13.70;99.90;;;;;;5090816;28;20215;-38
2022/10/31 06:36:47;;;;;;;19.03;12.20;;;13.70;99.90;;;;;;5091214;28;20180;-38
2022/10/31 06:39:13;;;;;;;15.73;11.63;;;13.70;99.90;;;;;;5090587;28;20193;-38
2022/10/31 06:41:41;;;;;;;18.33;11.80;;;13.80;99.90;;;;;;5085364;28;20192;-38
2022/10/31 06:44:07;;;;;;;17.57;10.97;;;13.90;99.90;;;;;;5089881;28;20438;-38
2022/10/31 06:46:33;;;;;;;15.93;12.17;;;13.90;99.90;;;;;;5090333;28;20509;-38
2022/10/31 06:48:58;;;;;;;19.47;11.90;;;13.90;99.90;;;;;;5089991;28;20505;-38
2022/10/31 06:51:24;;;;;;;16.83;11.70;;;13.90;99.90;;;;;;5090264;28;20234;-37
2022/10/31 06:53:50;;;;;;;16.73;11.13;;;13.80;99.90;;;;;;5090183;28;20192;-38
2022/10/31 06:56:15;;;;;;;16.93;12.60;;;13.80;99.90;;;;;;5089911;28;20184;-39
2022/10/31 06:58:41;;;;;;;22.80;11.87;;;13.80;99.90;;;;;;5090333;28;20186;-38
2022/10/31 07:01:07;;;;;;;15.77;11.43;;;13.80;99.90;;;;;;5088382;28;20192;-38
2022/10/31 07:03:32;;;;;;;18.60;11.93;;;13.80;99.90;;;;;;5089172;28;20188;-38
2022/10/31 07:05:58;;;;;;;20.00;12.40;;;13.90;99.90;;;;;;5089217;28;20211;-38
2022/10/31 07:08:24;;;;;;;17.23;12.40;;;13.90;99.90;;;;;;5089043;28;20192;-39
2022/10/31 07:10:55;;;;;;;20.03;14.13;;;13.90;99.90;;;;;;5089349;28;20572;-38
2022/10/31 07:13:25;;;;;;;16.90;12.50;;;14.00;99.90;;;;;;5088957;28;20438;-38
2022/10/31 07:15:59;;;;;;;17.20;12.33;;;14.10;99.90;;;;;;5089730;28;20959;-38
2022/10/31 07:18:25;;;;;;;19.93;12.07;;;14.10;99.90;;;;;;5092669;28;20414;-39
2022/10/31 07:20:52;;;;;;;22.90;12.47;;;14.20;99.90;;;;;;5099336;28;20414;-38
2022/10/31 07:23:17;;;;;;;18.67;12.50;;;14.20;99.90;;;;;;5099410;28;20179;-38
2022/10/31 07:25:43;;;;;;;20.03;14.40;;;14.30;99.90;;;;;;5100373;28;20491;-37
2022/10/31 07:28:10;;;;;;;18.23;12.03;;;14.20;99.90;;;;;;5110548;28;20251;-37
2022/10/31 07:30:36;;;;;;;19.67;13.67;;;14.30;99.90;;;;;;5110397;28;20180;-38
2022/10/31 07:33:02;;;;;;;18.57;13.20;;;14.30;99.90;;;;;;5100889;28;20429;-38
2022/10/31 07:35:29;;;;;;;21.30;13.43;;;14.30;99.90;;;;;;5099113;28;20838;-38
2022/10/31 07:37:55;;;;;;;18.30;12.87;;;14.30;99.90;;;;;;5099574;28;20406;-38
2022/10/31 07:40:21;;;;;;;23.03;12.57;;;14.40;99.90;;;;;;5099710;28;20417;-39
2022/10/31 07:42:49;;;;;;;21.00;12.87;;;14.30;99.90;;;;;;5098866;28;20421;-38
2022/10/31 07:45:20;;;;;;;18.47;12.43;;;14.30;99.90;;;;;;5110450;28;20425;-38
2022/10/31 07:47:50;;;;;;;17.77;13.67;;;14.30;99.90;;;;;;5100600;28;20909;-38
2022/10/31 07:50:25;;;;;;;22.40;13.37;;;14.30;99.90;;;;;;5089771;28;20414;-38
2022/10/31 07:53:03;;;;;;;18.50;12.50;;;14.30;99.90;;;;;;5089633;28;20426;-38
2022/10/31 07:55:30;;;;;;;14.63;11.43;;;14.40;99.90;;;;;;5089881;28;20511;-38
2022/10/31 07:57:56;;;;;;;16.57;10.97;;;14.40;99.90;;;;;;5089957;28;20414;-38
2022/10/31 08:00:22;;;;;;;20.50;13.43;;;14.40;99.90;;;;;;5089666;28;20414;-38
2022/10/31 08:02:48;;;;;;;17.93;11.17;;;14.40;99.90;;;;;;5098309;28;20636;-38
2022/10/31 08:05:13;;;;;;;18.70;11.53;;;14.40;99.90;;;;;;5088391;28;20207;-38
2022/10/31 08:07:39;;;;;;;18.17;11.80;;;14.50;99.90;;;;;;5089727;28;20245;-38
2022/10/31 08:10:05;;;;;;;15.43;11.70;;;14.50;99.90;;;;;;5086613;28;20188;-37
2022/10/31 08:12:31;;;;;;;14.20;10.17;;;14.50;99.90;;;;;;5080192;28;20239;-38
2022/10/31 08:14:56;;;;;;;16.20;11.53;;;14.50;99.90;;;;;;5088556;28;20991;-38
2022/10/31 08:17:22;;;;;;;17.37;10.80;;;14.50;99.90;;;;;;5089426;28;20416;-39
2022/10/31 08:19:48;;;;;;;15.83;11.53;;;14.60;99.90;;;;;;5096831;28;20720;-38
2022/10/31 08:22:13;;;;;;;13.67;10.17;;;14.60;99.90;;;;;;5089235;28;20685;-39
2022/10/31 08:24:39;;;;;;;14.40;11.00;;;14.70;99.90;;;;;;5088772;28;20258;-39
2022/10/31 08:27:04;;;;;;;16.47;11.43;;;14.60;99.90;;;;;;5089633;28;20188;-38
2022/10/31 08:29:30;;;;;;;14.07;10.70;;;14.70;99.90;;;;;;5088869;28;20192;-38
2022/10/31 08:31:57;;;;;;;17.53;10.93;;;14.70;99.90;;;;;;5089399;28;20180;-38
2022/10/31 08:34:24;;;;;;;20.83;11.77;;;14.80;99.90;;;;;;5089102;28;20208;-38
2022/10/31 08:36:49;;;;;;;11.87;10.60;;;14.80;99.90;;;;;;5089234;28;20410;-38
2022/10/31 08:39:15;;;;;;;16.37;11.03;;;14.90;99.90;;;;;;5088886;28;20780;-38
2022/10/31 08:41:41;;;;;;;13.87;11.30;;;14.90;99.90;;;;;;5089309;28;20185;-39
2022/10/31 08:44:06;;;;;;;13.70;10.10;;;15.00;99.90;;;;;;5089184;28;20176;-38
2022/10/31 08:46:32;;;;;;;15.60;11.80;;;15.10;99.90;;;;;;5097488;28;20557;-38
2022/10/31 08:48:58;;;;;;;18.20;13.13;;;15.20;99.90;;;;;;5100804;28;20794;-38
2022/10/31 08:51:23;;;;;;;17.73;11.17;;;15.30;99.90;;;;;;5109517;28;20199;-38
2022/10/31 08:53:49;;;;;;;23.57;13.30;;;15.50;99.90;;;;;;5109327;28;20206;-39
2022/10/31 08:56:15;;;;;;;24.03;15.03;;;15.60;99.90;;;;;;5101342;28;20180;-40
2022/10/31 08:58:40;;;;;;;20.77;14.60;;;15.70;99.90;;;;;;5102410;28;20658;-38
2022/10/31 09:01:06;;;;;;;26.90;14.47;;;15.90;99.90;;;;;;5099287;28;20594;-38
2022/10/31 09:03:32;;;;;;;21.27;13.73;;;16.00;99.90;;;;;;5101403;28;20802;-38
2022/10/31 09:06:00;;;;;;;21.97;13.97;;;16.20;99.90;;;;;;5101072;27;20332;-38
2022/10/31 09:08:26;;;;;;;21.90;14.50;;;16.30;99.90;;;;;;5100812;28;20211;-39
2022/10/31 09:10:55;;;;;;;22.30;14.27;;;16.40;99.90;;;;;;5103252;28;20505;-39
2022/10/31 09:13:21;;;;;;;18.73;13.30;;;16.60;99.90;;;;;;5080470;28;20432;-39
2022/10/31 09:15:49;;;;;;;23.37;14.33;;;16.80;99.90;;;;;;5099855;28;20519;-38
2022/10/31 09:18:17;;;;;;;20.40;13.53;;;16.90;99.90;;;;;;5103765;28;20428;-38
2022/10/31 09:20:44;;;;;;;20.33;13.30;;;17.10;99.90;;;;;;5097658;28;20418;-38
2022/10/31 09:23:13;;;;;;;20.03;13.93;;;17.20;99.90;;;;;;5094512;28;20421;-38
2022/10/31 09:25:39;;;;;;;20.47;11.80;;;17.30;99.90;;;;;;5101502;28;20461;-38
2022/10/31 09:28:08;;;;;;;23.80;14.30;;;17.40;99.90;;;;;;5096607;28;20505;-38
2022/10/31 09:30:35;;;;;;;21.53;14.70;;;17.50;99.90;;;;;;5102707;28;20472;-37
2022/10/31 09:33:06;;;;;;;19.23;13.13;;;17.60;99.90;;;;;;5092071;28;20430;-38
2022/10/31 09:35:32;;;;;;;25.50;15.07;;;17.60;99.90;;;;;;5106487;28;20464;-37
2022/10/31 09:38:03;;;;;;;23.13;13.47;;;17.60;99.90;;;;;;5112631;28;20410;-39
2022/10/31 09:40:31;;;;;;;23.43;14.00;;;17.60;99.90;;;;;;5112007;28;20972;-38
2022/10/31 09:43:13;;;;;;;20.20;12.60;;;17.50;99.90;;;;;;5106589;28;20422;-39
2022/10/31 09:46:04;;;;;;;24.43;13.10;;;17.50;99.90;;;;;;5091636;28;20824;-38
2022/10/31 09:48:54;;;;;;;22.90;13.67;;;17.40;99.90;;;;;;5049492;28;20419;-39
2022/10/31 09:51:21;;;;;;;18.93;12.10;;;17.40;99.90;;;;;;5091693;28;20406;-38
2022/10/31 09:54:16;;;;;;;21.07;13.10;;;17.40;99.90;;;;;;5091237;28;20476;-38
2022/10/31 09:56:43;;;;;;;20.60;12.47;;;17.30;99.90;;;;;;5091629;28;20438;-38
2022/10/31 09:59:43;;;;;;;19.80;12.90;;;17.20;99.90;;;;;;5090578;28;20414;-38
2022/10/31 10:02:34;;;;;;;18.53;13.20;;;17.20;99.90;;;;;;5086455;28;20506;-39
2022/10/31 10:05:04;;;;;;;24.17;13.83;;;17.10;99.90;;;;;;5101631;28;20441;-39
2022/10/31 10:07:32;;;;;;;20.70;13.33;;;17.00;99.90;;;;;;5089952;28;20431;-38
2022/10/31 10:10:20;;;;;;;26.97;14.00;;;17.00;99.90;;;;;;5091233;28;20499;-38
2022/10/31 10:13:21;;;;;;;17.70;11.80;;;17.10;99.90;;;;;;5087319;28;20434;-39
2022/10/31 10:16:13;;;;;;;20.17;13.70;;;17.10;99.90;;;;;;5015891;28;20590;-38
2022/10/31 10:19:11;;;;;;;20.40;12.90;;;17.00;99.90;;;;;;5088078;28;20425;-38
2022/10/31 10:21:47;;;;;;;21.23;14.20;;;17.10;99.90;;;;;;5096913;28;20438;-38
2022/10/31 10:24:36;;;;;;;18.03;13.67;;;17.20;99.90;;;;;;5073078;28;20438;-38
2022/10/31 10:27:23;;;;;;;16.73;12.77;;;17.20;99.90;;;;;;5089729;28;20509;-38
2022/10/31 10:30:18;;;;;;;21.67;14.20;;;17.30;99.90;;;;;;5089849;28;20418;-38
2022/10/31 10:32:52;;;;;;;25.77;14.20;;;17.40;99.90;;;;;;5095199;28;20436;-38
2022/10/31 10:35:34;;;;;;;21.27;14.17;;;17.50;99.90;;;;;;5102652;28;20499;-39
2022/10/31 10:38:28;;;;;;;21.63;13.30;;;17.60;99.90;;;;;;5070656;28;20420;-38
2022/10/31 10:40:54;;;;;;;21.80;14.70;;;17.70;99.90;;;;;;5088323;28;20420;-38
2022/10/31 10:43:38;;;;;;;18.57;14.00;;;17.80;99.90;;;;;;5091253;28;20446;-38
2022/10/31 10:49:18;;;;;;;17.10;11.93;;;17.90;99.90;;;;;;5094467;28;20916;-38
2022/10/31 10:51:50;;;;;;;20.40;12.90;;;17.90;99.90;;;;;;5090702;28;20413;-39
2022/10/31 10:54:52;;;;;;;17.93;13.20;;;17.90;99.90;;;;;;5089921;28;20466;-39
2022/10/31 10:57:43;;;;;;;18.77;12.23;;;17.90;99.90;;;;;;5090709;28;20437;-39
2022/10/31 11:00:19;;;;;;;18.67;12.97;;;18.00;99.90;;;;;;5108021;28;20418;-38
2022/10/31 11:02:45;;;;;;;19.30;12.50;;;18.00;99.90;;;;;;5110426;28;20421;-38
2022/10/31 11:05:38;;;;;;;16.33;11.83;;;18.00;99.90;;;;;;5101495;28;20437;-38
2022/10/31 11:08:05;;;;;;;18.93;13.10;;;18.00;99.90;;;;;;5107297;28;20219;-39
2022/10/31 11:10:33;;;;;;;19.73;13.20;;;18.00;99.90;;;;;;5101371;28;20429;-39
2022/10/31 11:13:17;;;;;;;18.03;13.23;;;18.00;99.90;;;;;;5110244;28;20429;-38
2022/10/31 11:16:04;;;;;;;15.50;12.20;;;18.00;99.90;;;;;;5084627;28;20462;-38
2022/10/31 11:18:34;;;;;;;17.47;12.80;;;18.00;99.90;;;;;;5089651;28;20430;-38
2022/10/31 11:21:03;;;;;;;18.03;12.70;;;18.00;99.90;;;;;;5090210;28;20459;-38
2022/10/31 11:23:29;;;;;;;19.07;14.10;;;18.00;99.90;;;;;;5089545;28;20892;-39
2022/10/31 11:26:06;;;;;;;19.90;12.00;;;18.10;99.90;;;;;;5090097;28;20429;-38
2022/10/31 11:28:36;;;;;;;16.57;13.50;;;18.10;99.90;;;;;;5098592;28;20474;-38
2022/10/31 11:31:13;;;;;;;16.57;12.10;;;18.10;99.90;;;;;;5105435;28;20421;-39
2022/10/31 11:33:44;;;;;;;21.03;12.53;;;18.10;99.90;;;;;;5109918;28;20460;-38
2022/10/31 11:36:25;;;;;;;18.80;12.50;;;18.10;99.90;;;;;;5104290;28;20919;-38
2022/10/31 11:38:51;;;;;;;17.17;11.00;;;18.10;99.90;;;;;;5107677;28;20416;-38
2022/10/31 11:41:20;;;;;;;20.23;11.90;;;18.10;99.90;;;;;;5110402;28;20439;-39
2022/10/31 11:43:55;;;;;;;20.10;11.47;;;18.10;99.90;;;;;;5109809;28;20761;-39
2022/10/31 11:46:28;;;;;;;21.77;12.40;;;18.10;99.90;;;;;;5110174;28;20474;-39
2022/10/31 11:48:55;;;;;;;20.93;11.77;;;18.20;99.90;;;;;;5108467;28;20486;-38
2022/10/31 11:51:28;;;;;;;16.33;11.07;;;18.20;99.90;;;;;;5110338;28;20963;-41
2022/10/31 11:53:56;;;;;;;18.97;10.90;;;18.30;99.90;;;;;;5109910;28;20414;-39
2022/10/31 11:56:22;;;;;;;13.23;10.03;;;18.40;99.90;;;;;;5110175;28;20414;-38
2022/10/31 11:59:05;;;;;;;14.70;10.00;;;18.50;99.90;;;;;;5109538;28;20897;-38
2022/10/31 12:01:32;;;;;;;13.30;9.60;;;18.50;99.90;;;;;;5107317;28;20260;-38
2022/10/31 12:04:05;;;;;;;16.30;10.77;;;18.40;99.90;;;;;;5109785;28;20405;-38
2022/10/31 12:06:42;;;;;;;13.53;9.10;;;18.40;99.90;;;;;;5092751;28;20447;-38
2022/10/31 12:09:23;;;;;;;12.57;8.80;;;18.40;99.90;;;;;;5089240;28;21108;-38
2022/10/31 12:12:15;;;;;;;17.87;10.13;;;18.40;99.90;;;;;;5089692;28;20510;-38
2022/10/31 12:15:02;;;;;;;9.73;8.73;;;18.50;99.90;;;;;;5089497;28;20448;-38
2022/10/31 12:17:55;;;;;;;11.60;8.60;;;18.50;99.90;;;;;;5089500;28;20414;-38
2022/10/31 12:20:20;;;;;;;16.13;9.73;;;18.50;99.90;;;;;;5089087;28;20415;-38
2022/10/31 12:23:08;;;;;;;13.70;8.80;;;18.50;99.90;;;;;;5088360;28;20418;-38
2022/10/31 12:25:36;;;;;;;15.27;9.50;;;18.60;99.90;;;;;;5096602;28;20184;-39
2022/10/31 12:28:22;;;;;;;18.50;11.00;;;18.60;99.90;;;;;;5094571;28;20993;-38
2022/10/31 12:31:03;;;;;;;14.03;8.80;;;18.60;99.90;;;;;;5093686;28;20430;-39
2022/10/31 12:33:52;;;;;;;16.73;9.60;;;18.60;99.90;;;;;;5095851;28;20414;-38
2022/10/31 12:36:37;;;;;;;13.03;8.67;;;18.70;99.90;;;;;;5110743;28;20927;-38
2022/10/31 12:39:13;;;;;;;14.83;8.77;;;18.70;99.90;;;;;;5113510;28;20859;-38
2022/10/31 12:41:53;;;;;;;16.90;9.00;;;18.80;99.90;;;;;;5112450;28;21220;-39
2022/10/31 12:44:34;;;;;;;10.67;7.90;;;18.90;99.90;;;;;;5113246;28;20421;-38
2022/10/31 12:47:03;;;;;;;13.03;8.20;;;18.90;99.90;;;;;;5113755;28;20494;-39
2022/10/31 12:49:38;;;;;;;10.67;7.90;;;18.90;99.90;;;;;;5113060;28;20408;-38
2022/10/31 12:52:24;;;;;;;9.67;8.03;;;18.90;99.90;;;;;;5113602;27;20838;-40
2022/10/31 12:55:14;;;;;;;10.07;7.70;;;18.90;99.90;;;;;;5111669;28;20488;-39